Time;durP1;ratioP1;P1;durP2;ratioP2;P2;SDS_P1;SDS_P2;PMS_P1;PMS_P2;Temp;Humidity;BMP_temperature;BMP_pressure;BME280_temperature;BME280_humidity;BME280_pressure;Samples;Min_cycle;Max_cycle;Signal;HPM_P1;HPM_P2
2021/03/12 00:00:51;;;;;;;13.35;8.27;;;;;;;1.63;77.56;95266.25;6218759;23;20246;-90
2021/03/12 00:03:20;;;;;;;10.77;8.27;;;;;;;1.53;77.40;95259.81;6218535;23;20253;-90
2021/03/12 00:05:48;;;;;;;10.50;8.27;;;;;;;1.54;77.28;95275.25;6220012;23;20170;-90
2021/03/12 00:08:16;;;;;;;22.50;8.77;;;;;;;1.53;77.06;95264.97;6219031;23;20237;-89
2021/03/12 00:10:43;;;;;;;24.02;11.15;;;;;;;1.53;76.81;95275.31;6219587;23;20171;-90
2021/03/12 00:13:10;;;;;;;16.35;10.55;;;;;;;1.47;77.06;95267.84;6220062;23;20221;-89
2021/03/12 00:15:37;;;;;;;18.58;10.25;;;;;;;1.50;77.22;95272.88;6221934;23;20183;-90
2021/03/12 00:18:05;;;;;;;13.77;9.77;;;;;;;1.50;76.97;95278.88;6236773;23;20170;-89
2021/03/12 00:20:33;;;;;;;14.75;10.48;;;;;;;1.57;77.68;95281.19;6236177;23;20171;-89
2021/03/12 00:23:01;;;;;;;26.55;18.08;;;;;;;1.61;78.20;95287.91;6237850;23;20207;-90
2021/03/12 00:25:31;;;;;;;32.38;20.40;;;;;;;1.58;78.84;95280.28;6227612;23;20173;-90
2021/03/12 00:27:58;;;;;;;38.70;21.20;;;;;;;1.63;79.29;95274.00;6221985;23;20171;-89
2021/03/12 00:30:24;;;;;;;28.50;18.63;;;;;;;1.60;80.00;95276.72;6220705;23;20180;-89
2021/03/12 00:32:52;;;;;;;25.20;16.45;;;;;;;1.57;79.32;95276.88;6220462;23;20174;-88
2021/03/12 00:35:38;;;;;;;46.05;24.25;;;;;;;1.52;79.76;95268.47;6220958;23;20478;-90
2021/03/12 00:38:05;;;;;;;40.17;23.05;;;;;;;1.45;80.02;95261.91;6220364;23;20179;-90
2021/03/12 00:40:35;;;;;;;31.83;19.70;;;;;;;1.47;80.22;95265.25;6221001;23;20433;-90
2021/03/12 00:43:01;;;;;;;26.33;14.80;;;;;;;1.45;79.83;95254.13;6221052;23;20194;-90
2021/03/12 00:45:32;;;;;;;19.17;13.50;;;;;;;1.49;79.37;95248.75;6172416;23;20202;-89
2021/03/12 00:47:59;;;;;;;15.57;10.93;;;;;;;1.48;79.10;95251.41;6224969;23;20184;-88
2021/03/12 00:50:28;;;;;;;15.20;10.68;;;;;;;1.50;78.98;95241.84;6224421;23;20199;-90
2021/03/12 00:52:55;;;;;;;15.27;9.60;;;;;;;1.52;79.15;95240.03;6220829;23;20171;-89
2021/03/12 00:55:21;;;;;;;19.13;12.35;;;;;;;1.48;78.81;95217.81;6220061;23;20242;-90
2021/03/12 00:57:48;;;;;;;12.00;8.25;;;;;;;1.39;78.83;95213.00;6220869;23;20482;-89
2021/03/12 01:00:16;;;;;;;11.88;8.63;;;;;;;1.39;78.97;95216.44;6220107;23;20182;-88
2021/03/12 01:02:43;;;;;;;13.50;9.60;;;;;;;1.38;78.72;95213.91;6220141;23;20273;-89
2021/03/12 01:05:11;;;;;;;12.57;8.80;;;;;;;1.38;78.24;95221.69;6220365;23;20171;-90
2021/03/12 01:07:38;;;;;;;12.45;8.40;;;;;;;1.40;78.63;95222.44;6221042;23;20171;-90
2021/03/12 01:10:07;;;;;;;12.88;8.93;;;;;;;1.38;78.24;95219.09;6224645;23;20250;-89
2021/03/12 01:12:33;;;;;;;14.05;9.20;;;;;;;1.38;78.45;95208.75;6221614;23;20178;-89
2021/03/12 01:14:59;;;;;;;13.27;9.68;;;;;;;1.40;77.94;95210.34;6221313;23;20193;-89
2021/03/12 01:17:26;;;;;;;18.95;9.68;;;;;;;1.33;77.97;95195.19;6219596;23;20604;-90
2021/03/12 01:19:53;;;;;;;11.52;9.20;;;;;;;1.29;78.35;95204.84;6219970;23;20547;-90
2021/03/12 01:22:21;;;;;;;13.63;8.82;;;;;;;1.25;78.14;95190.38;6220187;23;20187;-89
2021/03/12 01:24:47;;;;;;;11.60;8.98;;;;;;;1.22;79.08;95199.09;6220101;23;20177;-90
2021/03/12 01:27:14;;;;;;;12.52;9.00;;;;;;;1.27;78.14;95206.66;6220236;23;20247;-90
2021/03/12 01:29:40;;;;;;;14.68;9.98;;;;;;;1.25;78.54;95208.47;6219887;23;20195;-90
2021/03/12 01:32:08;;;;;;;14.02;9.35;;;;;;;1.29;78.74;95198.81;6219509;23;20177;-90
2021/03/12 01:34:34;;;;;;;13.57;9.60;;;;;;;1.31;78.42;95184.09;6220098;23;20170;-89
2021/03/12 01:37:01;;;;;;;15.15;10.07;;;;;;;1.37;78.25;95201.91;6219357;23;20179;-90
2021/03/12 01:39:28;;;;;;;12.40;10.45;;;;;;;1.40;78.08;95204.34;6219526;23;20177;-90
2021/03/12 01:41:54;;;;;;;11.52;9.23;;;;;;;1.46;77.97;95207.53;6219687;23;20181;-90
2021/03/12 01:44:21;;;;;;;17.60;11.50;;;;;;;1.52;77.76;95199.50;6218556;23;20409;-89
2021/03/12 01:46:47;;;;;;;19.75;10.43;;;;;;;1.55;78.24;95206.28;6219882;23;20177;-89
2021/03/12 01:49:14;;;;;;;15.90;10.13;;;;;;;1.57;77.87;95193.28;6220103;23;20170;-89
2021/03/12 01:51:41;;;;;;;12.30;9.05;;;;;;;1.57;77.92;95193.28;6220469;23;20230;-90
2021/03/12 01:54:07;;;;;;;13.02;9.35;;;;;;;1.55;77.88;95190.75;6222785;23;20166;-89
2021/03/12 01:56:35;;;;;;;16.50;9.43;;;;;;;1.50;77.43;95213.41;6221595;23;20171;-90
2021/03/12 01:59:01;;;;;;;10.52;8.70;;;;;;;1.48;78.06;95215.22;6219906;23;20174;-89
2021/03/12 02:01:28;;;;;;;13.05;8.68;;;;;;;1.35;78.15;95219.22;6220563;23;20198;-90
2021/03/12 02:03:54;;;;;;;12.27;8.90;;;;;;;1.31;77.55;95217.69;6219484;23;20696;-90
2021/03/12 02:06:21;;;;;;;11.15;9.32;;;;;;;1.27;77.93;95216.16;6220156;23;20238;-90
2021/03/12 02:08:47;;;;;;;14.45;8.85;;;;;;;1.28;77.72;95223.00;6219638;23;20253;-89
2021/03/12 02:11:14;;;;;;;15.20;9.65;;;;;;;1.30;78.29;95221.19;6219579;23;20511;-90
2021/03/12 02:13:48;;;;;;;11.65;9.27;;;;;;;1.30;78.25;95203.94;6219479;23;20163;-89
2021/03/12 02:16:21;;;;;;;14.05;8.82;;;;;;;1.31;78.02;95190.09;6219569;23;20179;-89
2021/03/12 02:18:57;;;;;;;13.23;9.98;;;;;;;1.35;78.16;95178.72;6219991;23;20221;-89
2021/03/12 02:21:30;;;;;;;15.68;9.32;;;;;;;1.37;78.06;95176.88;6219049;23;20173;-90
2021/03/12 02:24:02;;;;;;;11.82;9.10;;;;;;;1.40;78.19;95166.41;6218021;23;20190;-88
2021/03/12 02:26:39;;;;;;;14.38;9.40;;;;;;;1.42;77.96;95168.94;6217952;23;20550;-88
2021/03/12 02:29:09;;;;;;;15.43;9.30;;;;;;;1.47;78.26;95173.00;6221037;23;20171;-88
2021/03/12 02:31:37;;;;;;;13.88;9.75;;;;;;;1.54;77.42;95164.06;6218446;23;20173;-89
2021/03/12 02:34:06;;;;;;;12.15;9.13;;;;;;;1.57;77.37;95163.06;6217580;23;20178;-89
2021/03/12 02:36:35;;;;;;;17.45;9.32;;;;;;;1.58;77.46;95158.75;6218096;23;20178;-88
2021/03/12 02:39:06;;;;;;;16.65;10.00;;;;;;;1.54;76.99;95153.72;6218181;23;20174;-89
2021/03/12 02:41:34;;;;;;;12.10;9.20;;;;;;;1.55;77.00;95141.63;6219399;23;20176;-90
2021/03/12 02:44:02;;;;;;;14.00;9.43;;;;;;;1.54;76.97;95148.53;6219553;23;20217;-90
2021/03/12 02:46:30;;;;;;;19.55;10.65;;;;;;;1.54;77.27;95153.72;6219639;23;20486;-90
2021/03/12 02:48:57;;;;;;;13.68;9.70;;;;;;;1.44;76.76;95146.44;6219366;23;20175;-89
2021/03/12 02:51:24;;;;;;;14.90;9.52;;;;;;;1.43;77.36;95140.41;6219405;23;20203;-89
2021/03/12 02:53:51;;;;;;;14.98;9.27;;;;;;;1.45;77.30;95133.47;6219571;23;20655;-89
2021/03/12 02:56:21;;;;;;;16.30;9.85;;;;;;;1.40;77.76;95125.03;6219526;23;20162;-89
2021/03/12 02:58:49;;;;;;;13.48;9.48;;;;;;;1.38;77.49;95120.84;6219609;23;20197;-89
2021/03/12 03:01:17;;;;;;;15.20;10.55;;;;;;;1.36;77.46;95128.69;6219669;23;20168;-89
2021/03/12 03:04:03;;;;;;;13.80;9.70;;;;;;;1.36;77.98;95138.19;6219160;23;20191;-90
2021/03/12 03:06:30;;;;;;;13.05;9.95;;;;;;;1.38;78.19;95141.53;6218992;23;20167;-89
2021/03/12 03:08:56;;;;;;;12.57;8.45;;;;;;;1.38;77.61;95152.72;6219633;23;20170;-90
2021/03/12 03:11:23;;;;;;;10.77;8.90;;;;;;;1.40;77.85;95145.72;6219089;23;20167;-90
2021/03/12 03:13:52;;;;;;;12.02;9.55;;;;;;;1.36;78.09;95139.03;6219309;23;20185;-89
2021/03/12 03:16:22;;;;;;;16.25;10.63;;;;;;;1.31;78.54;95145.31;6219223;23;20173;-89
2021/03/12 03:18:50;;;;;;;20.33;12.98;;;;;;;1.30;78.71;95133.28;6219604;23;20170;-90
2021/03/12 03:21:18;;;;;;;21.55;13.13;;;;;;;1.22;78.84;95121.56;6219269;23;20221;-90
2021/03/12 03:23:46;;;;;;;20.88;13.25;;;;;;;1.18;79.80;95120.03;6219792;23;20245;-88
2021/03/12 03:26:13;;;;;;;17.40;12.93;;;;;;;1.18;79.85;95114.84;6219067;23;20171;-89
2021/03/12 03:28:40;;;;;;;21.95;13.50;;;;;;;1.18;80.17;95108.84;6219301;23;20171;-90
2021/03/12 03:31:06;;;;;;;24.30;16.00;;;;;;;1.11;80.63;95095.34;6219449;23;20232;-89
2021/03/12 03:33:33;;;;;;;26.73;14.75;;;;;;;1.17;81.02;95100.25;6218919;23;20194;-90
2021/03/12 03:36:00;;;;;;;21.15;14.98;;;;;;;1.24;80.66;95103.41;6219191;23;20183;-89
2021/03/12 03:38:29;;;;;;;18.75;13.45;;;;;;;1.22;80.72;95095.72;6218889;23;20170;-90
2021/03/12 03:40:55;;;;;;;18.45;13.00;;;;;;;1.26;81.25;95100.75;6218677;23;20175;-89
2021/03/12 03:43:25;;;;;;;16.58;12.82;;;;;;;1.28;81.64;95101.50;6218286;23;20201;-89
2021/03/12 03:45:53;;;;;;;20.65;13.98;;;;;;;1.30;81.00;95099.69;6218573;23;20177;-89
2021/03/12 03:48:21;;;;;;;18.55;13.68;;;;;;;1.29;81.33;95110.94;6219027;23;20181;-89
2021/03/12 03:50:48;;;;;;;16.63;11.35;;;;;;;1.36;81.74;95117.50;6218949;23;20195;-90
2021/03/12 03:53:15;;;;;;;19.95;11.93;;;;;;;1.38;80.96;95108.75;6218271;23;20167;-88
2021/03/12 03:55:43;;;;;;;17.52;11.40;;;;;;;1.41;80.56;95103.44;6218697;23;20202;-86
2021/03/12 03:58:10;;;;;;;15.30;10.57;;;;;;;1.39;80.45;95102.69;6219691;23;20291;-90
2021/03/12 04:00:38;;;;;;;13.65;10.93;;;;;;;1.42;80.45;95104.28;6218722;23;20405;-89
2021/03/12 04:03:05;;;;;;;14.60;10.50;;;;;;;1.44;80.71;95094.72;6219160;23;20190;-89
2021/03/12 04:05:32;;;;;;;17.42;10.30;;;;;;;1.47;80.37;95089.44;6218070;23;20195;-88
2021/03/12 04:08:00;;;;;;;17.23;11.45;;;;;;;1.52;80.45;95106.41;6218436;23;20174;-86
2021/03/12 04:10:27;;;;;;;16.95;10.90;;;;;;;1.56;80.51;95109.69;6218349;23;20229;-86
2021/03/12 04:12:55;;;;;;;27.08;15.48;;;;;;;1.47;80.46;95105.78;6218001;23;20177;-88
2021/03/12 04:15:23;;;;;;;31.83;20.83;;;;;;;1.41;80.70;95100.88;6218265;23;20273;-88
2021/03/12 04:17:50;;;;;;;31.08;21.80;;;;;;;1.08;82.08;95092.91;6217485;23;20177;-87
2021/03/12 04:20:16;;;;;;;33.00;20.60;;;;;;;1.12;81.85;95103.94;6217537;23;20182;-87
2021/03/12 04:22:45;;;;;;;29.60;19.33;;;;;;;1.10;81.83;95096.25;6218101;23;20262;-87
2021/03/12 04:25:12;;;;;;;26.33;18.38;;;;;;;1.12;82.00;95109.09;6218281;23;20186;-88
2021/03/12 04:27:40;;;;;;;35.67;20.63;;;;;;;1.14;81.57;95102.94;6217984;23;20643;-89
2021/03/12 04:30:08;;;;;;;31.02;20.42;;;;;;;1.18;82.46;95094.19;6216919;23;20414;-88
2021/03/12 04:32:37;;;;;;;28.15;16.80;;;;;;;1.24;81.87;95087.88;6218131;23;20182;-87
2021/03/12 04:35:04;;;;;;;27.02;17.45;;;;;;;1.13;81.53;95083.19;6218493;23;20464;-88
2021/03/12 04:37:31;;;;;;;28.60;16.95;;;;;;;1.12;81.89;95084.09;6218567;23;20236;-88
2021/03/12 04:39:58;;;;;;;25.00;16.05;;;;;;;1.16;81.32;95070.16;6219210;23;20545;-88
2021/03/12 04:42:25;;;;;;;26.92;16.33;;;;;;;1.19;81.05;95082.09;6218407;23;20186;-88
2021/03/12 04:44:52;;;;;;;25.83;17.35;;;;;;;1.20;81.37;95078.59;6218625;23;20193;-88
2021/03/12 04:47:20;;;;;;;26.25;17.00;;;;;;;1.25;80.93;95084.41;6218359;23;20182;-88
2021/03/12 04:49:47;;;;;;;32.17;21.73;;;;;;;1.18;80.91;95096.75;6217843;23;20174;-89
2021/03/12 04:52:14;;;;;;;32.33;20.70;;;;;;;1.15;81.29;95098.63;6218197;23;20653;-87
2021/03/12 04:54:42;;;;;;;38.95;21.35;;;;;;;1.04;81.40;95106.03;6219312;23;20170;-92
2021/03/12 04:57:09;;;;;;;33.45;22.30;;;;;;;1.05;82.53;95097.38;6219383;23;20177;-87
2021/03/12 04:59:36;;;;;;;41.40;24.42;;;;;;;1.08;82.64;95098.06;6218319;23;20178;-91
2021/03/12 05:02:02;;;;;;;40.83;25.20;;;;;;;1.15;82.56;95093.44;6218542;23;20170;-88
2021/03/12 05:04:31;;;;;;;42.10;26.17;;;;;;;1.26;83.43;95098.16;6217810;23;20171;-84
2021/03/12 05:06:58;;;;;;;49.95;27.90;;;;;;;1.33;82.83;95092.63;6219590;23;20246;-88
2021/03/12 05:09:27;;;;;;;42.78;25.45;;;;;;;1.48;82.18;95093.69;6219616;23;20493;-86
2021/03/12 05:11:54;;;;;;;36.17;21.02;;;;;;;1.57;82.13;95106.19;6220065;23;20260;-86
2021/03/12 05:14:20;;;;;;;35.63;21.75;;;;;;;1.62;80.83;95099.03;6219639;23;20599;-91
2021/03/12 05:16:47;;;;;;;31.05;18.80;;;;;;;1.66;80.40;95069.53;6219641;23;20168;-85
2021/03/12 05:19:13;;;;;;;27.13;19.42;;;;;;;1.69;79.99;95064.22;6219381;23;20198;-85
2021/03/12 05:21:40;;;;;;;30.65;21.88;;;;;;;1.68;80.81;95062.53;6219740;23;20161;-85
2021/03/12 05:24:08;;;;;;;38.47;22.92;;;;;;;1.70;80.94;95059.88;6218521;23;20183;-85
2021/03/12 05:26:34;;;;;;;41.70;22.85;;;;;;;1.72;80.72;95095.09;6218590;23;20174;-88
2021/03/12 05:29:01;;;;;;;37.58;23.00;;;;;;;1.73;80.72;95116.63;6219458;23;20167;-86
2021/03/12 05:31:30;;;;;;;41.47;22.85;;;;;;;1.71;80.39;95121.88;6219360;23;20835;-85
2021/03/12 05:33:57;;;;;;;31.80;20.05;;;;;;;1.75;80.26;95105.34;6219252;23;21250;-85
2021/03/12 05:36:24;;;;;;;41.60;21.02;;;;;;;1.81;80.41;95120.56;6219144;23;20616;-86
2021/03/12 05:38:51;;;;;;;32.63;20.60;;;;;;;1.91;80.25;95115.78;6219169;23;20178;-86
2021/03/12 05:41:19;;;;;;;31.73;21.75;;;;;;;2.02;79.61;95117.84;6219407;23;20221;-86
2021/03/12 05:43:45;;;;;;;32.38;21.02;;;;;;;2.14;79.73;95133.66;6219517;23;20278;-87
2021/03/12 05:46:13;;;;;;;30.60;19.63;;;;;;;2.30;79.63;95145.84;6219563;23;20170;-86
2021/03/12 05:48:40;;;;;;;43.40;24.63;;;;;;;2.41;78.81;95143.56;6220682;23;20414;-86
2021/03/12 05:51:07;;;;;;;40.33;20.85;;;;;;;2.51;78.25;95136.19;6220138;23;20526;-86
2021/03/12 05:53:33;;;;;;;34.67;19.70;;;;;;;2.55;77.91;95116.97;6219461;23;20167;-86
2021/03/12 05:56:01;;;;;;;35.27;20.37;;;;;;;2.60;78.40;95110.69;6219414;23;20258;-84
2021/03/12 05:58:28;;;;;;;37.60;23.07;;;;;;;2.75;77.71;95134.97;6219422;23;20732;-86
2021/03/12 06:00:54;;;;;;;43.90;23.07;;;;;;;2.84;76.81;95131.91;6218751;23;20476;-86
2021/03/12 06:03:21;;;;;;;42.23;25.63;;;;;;;2.89;77.08;95135.13;6219229;23;20441;-85
2021/03/12 06:05:48;;;;;;;40.27;25.97;;;;;;;2.91;76.98;95127.25;6217962;23;20874;-85
2021/03/12 06:08:15;;;;;;;40.63;25.83;;;;;;;2.97;76.67;95135.56;6219823;23;20405;-88
2021/03/12 06:10:41;;;;;;;41.73;24.90;;;;;;;3.01;76.57;95133.66;6219811;23;20719;-85
2021/03/12 06:13:09;;;;;;;51.33;29.17;;;;;;;2.96;76.62;95135.63;6219080;23;20395;-86
2021/03/12 06:15:37;;;;;;;54.27;32.60;;;;;;;3.09;77.06;95144.44;6219495;23;20425;-86
2021/03/12 06:18:13;;;;;;;51.67;30.30;;;;;;;3.25;76.41;95160.91;6218290;23;20425;-86
2021/03/12 06:20:40;;;;;;;42.20;27.47;;;;;;;3.44;75.40;95181.50;6219001;23;20386;-86
2021/03/12 06:23:06;;;;;;;36.27;22.60;;;;;;;3.55;74.63;95168.81;6218827;23;20929;-84
2021/03/12 06:29:09;;;;;;;40.10;25.27;;;;;;;3.69;75.08;95150.75;6217118;23;20386;-86
2021/03/12 06:31:37;;;;;;;34.13;23.93;;;;;;;3.65;74.02;95154.44;6219068;23;20410;-86
2021/03/12 06:34:08;;;;;;;40.23;26.87;;;;;;;3.69;73.86;95153.34;6218232;23;20426;-86
2021/03/12 06:36:35;;;;;;;39.63;25.10;;;;;;;3.83;73.78;95156.97;6218593;23;20410;-86
2021/03/12 06:39:01;;;;;;;33.70;22.50;;;;;;;4.02;72.73;95175.81;6218395;23;20413;-85
2021/03/12 06:41:37;;;;;;;38.27;24.60;;;;;;;4.31;71.21;95174.19;6218143;23;20398;-85
2021/03/12 06:44:32;;;;;;;34.57;22.60;;;;;;;4.60;70.69;95176.00;6218563;23;20504;-88
2021/03/12 06:46:59;;;;;;;40.03;24.87;;;;;;;4.66;69.76;95190.41;6128092;23;20412;-87
2021/03/12 06:49:26;;;;;;;44.30;24.97;;;;;;;4.62;68.17;95199.28;6131176;23;20424;-87
2021/03/12 06:52:02;;;;;;;43.87;28.37;;;;;;;4.43;68.66;95209.06;6135823;23;20433;-85
2021/03/12 06:54:32;;;;;;;44.90;29.03;;;;;;;4.45;69.42;95228.00;6130947;23;20479;-85
2021/03/12 06:57:01;;;;;;;42.03;25.50;;;;;;;4.53;75.50;95225.81;6179306;23;20457;-90
2021/03/12 06:59:30;;;;;;;34.57;21.93;;;;;;;4.39;70.58;95229.19;6220454;23;20391;-89
2021/03/12 07:02:01;;;;;;;48.60;27.43;;;;;;;4.46;76.97;95214.09;6221266;23;20480;-89
2021/03/12 07:04:29;;;;;;;37.13;25.90;;;;;;;4.51;73.64;95230.25;6219501;23;20503;-87
2021/03/12 07:06:56;;;;;;;54.93;28.93;;;;;;;4.58;72.74;95239.38;6219151;23;20398;-86
2021/03/12 07:09:24;;;;;;;50.67;30.43;;;;;;;4.53;70.63;95247.44;6219951;23;20405;-86
2021/03/12 07:11:54;;;;;;;46.53;28.47;;;;;;;4.41;70.06;95240.31;6220294;23;20394;-87
2021/03/12 07:14:20;;;;;;;47.97;26.47;;;;;;;4.31;70.40;95232.19;6220036;23;20442;-85
2021/03/12 07:16:47;;;;;;;47.60;27.43;;;;;;;4.37;71.36;95251.81;6220573;23;20387;-88
2021/03/12 07:19:15;;;;;;;45.77;29.07;;;;;;;4.39;71.79;95256.91;6219853;23;20417;-88
2021/03/12 07:21:42;;;;;;;49.77;33.17;;;;;;;4.48;70.34;95254.66;6218443;23;20402;-84
2021/03/12 07:24:11;;;;;;;54.67;30.13;;;;;;;4.55;70.77;95260.34;6218134;23;20433;-85
2021/03/12 07:26:45;;;;;;;46.87;30.80;;;;;;;4.68;70.62;95253.56;6217820;23;20444;-84
2021/03/12 07:29:12;;;;;;;51.57;31.17;;;;;;;4.78;69.54;95253.84;6218264;23;20425;-81
2021/03/12 07:31:41;;;;;;;64.50;35.00;;;;;;;4.90;68.97;95250.56;6216733;23;20730;-82
2021/03/12 07:34:12;;;;;;;56.43;35.43;;;;;;;4.87;69.70;95238.56;6188613;23;20477;-83
2021/03/12 07:36:45;;;;;;;56.67;33.57;;;;;;;5.04;68.54;95232.41;6216360;23;20391;-84
2021/03/12 07:39:16;;;;;;;45.00;28.60;;;;;;;5.15;67.98;95245.63;6216700;23;20490;-86
2021/03/12 07:41:43;;;;;;;45.87;28.43;;;;;;;5.19;68.04;95233.28;6215011;23;20402;-83
2021/03/12 07:44:13;;;;;;;47.67;29.20;;;;;;;5.28;67.40;95238.78;6216028;23;20435;-85
2021/03/12 07:46:41;;;;;;;41.10;26.07;;;;;;;5.33;66.51;95228.13;6217205;23;20371;-85
2021/03/12 07:49:35;;;;;;;39.37;27.70;;;;;;;5.31;67.67;95232.56;6215837;23;20417;-84
2021/03/12 07:52:05;;;;;;;48.20;28.93;;;;;;;5.48;66.09;95229.78;6216771;23;20401;-84
2021/03/12 07:54:48;;;;;;;45.97;27.17;;;;;;;5.72;67.39;95226.66;6216661;23;20463;-83
2021/03/12 07:57:16;;;;;;;51.53;29.17;;;;;;;5.94;65.77;95213.22;6216471;23;20433;-84
2021/03/12 08:00:01;;;;;;;51.23;29.40;;;;;;;6.15;65.06;95217.94;6216381;23;20402;-83
2021/03/12 08:03:00;;;;;;;48.20;27.20;;;;;;;6.25;64.60;95205.16;6215772;23;20493;-85
2021/03/12 08:05:34;;;;;;;48.03;27.07;;;;;;;6.29;65.26;95208.41;6163660;23;20405;-82
2021/03/12 08:08:03;;;;;;;33.93;19.70;;;;;;;6.47;64.90;95200.28;6215891;23;20389;-82
2021/03/12 08:10:30;;;;;;;24.57;16.17;;;;;;;6.72;63.88;95191.72;6215809;23;20429;-81
2021/03/12 08:12:56;;;;;;;22.67;14.90;;;;;;;6.95;62.03;95168.50;6188595;23;20405;-81
2021/03/12 08:15:24;;;;;;;20.57;15.17;;;;;;;7.24;62.03;95162.19;6216081;23;21230;-80
2021/03/12 08:18:24;;;;;;;29.10;18.70;;;;;;;7.20;60.82;95158.09;6216339;23;21013;-86
2021/03/12 08:20:51;;;;;;;35.97;23.10;;;;;;;7.02;62.84;95156.72;6216487;23;20410;-86
2021/03/12 08:23:31;;;;;;;38.13;23.50;;;;;;;6.77;63.11;95174.00;6216360;23;20498;-84
2021/03/12 08:25:58;;;;;;;41.23;27.77;;;;;;;6.35;64.50;95171.53;6216381;23;20709;-85
2021/03/12 08:28:32;;;;;;;42.17;26.40;;;;;;;6.18;65.57;95164.78;6216560;23;20448;-88
2021/03/12 08:31:03;;;;;;;41.60;27.63;;;;;;;6.14;65.90;95182.41;6216295;23;20385;-83
2021/03/12 08:33:35;;;;;;;32.83;21.00;;;;;;;6.11;64.76;95190.41;6216255;23;20414;-82
2021/03/12 08:36:02;;;;;;;28.50;20.13;;;;;;;6.16;64.66;95187.50;6216875;23;20407;-86
2021/03/12 08:38:42;;;;;;;27.03;18.80;;;;;;;5.93;62.76;95212.38;6218075;23;20707;-84
2021/03/12 08:41:16;;;;;;;34.17;19.17;;;;;;;5.81;65.14;95200.91;6218745;23;20719;-85
2021/03/12 08:43:45;;;;;;;37.20;21.40;;;;;;;5.81;64.84;95215.72;6220049;23;20480;-84
2021/03/12 08:46:16;;;;;;;28.07;19.90;;;;;;;5.92;64.77;95209.88;6219342;23;20710;-86
2021/03/12 08:48:45;;;;;;;34.87;22.37;;;;;;;5.80;66.17;95214.88;6218780;23;20409;-86
2021/03/12 08:51:17;;;;;;;40.77;24.40;;;;;;;5.94;66.38;95211.44;6191817;23;20721;-87
2021/03/12 08:53:51;;;;;;;38.40;19.20;;;;;;;5.97;64.29;95215.63;6220314;23;20410;-86
2021/03/12 08:56:26;;;;;;;21.73;15.80;;;;;;;5.62;65.10;95228.16;6219469;23;20401;-85
2021/03/12 08:58:53;;;;;;;25.23;15.40;;;;;;;5.69;65.52;95224.25;6219646;23;20393;-84
2021/03/12 09:01:21;;;;;;;29.13;17.50;;;;;;;5.24;65.75;95218.25;6219668;23;20386;-83
2021/03/12 09:03:52;;;;;;;26.90;16.70;;;;;;;5.16;65.51;95210.88;6219506;23;20441;-84
2021/03/12 09:06:21;;;;;;;30.23;17.97;;;;;;;4.99;66.59;95208.44;6218726;23;20492;-80
2021/03/12 09:08:48;;;;;;;24.20;17.27;;;;;;;4.71;67.90;95214.38;6191837;23;20437;-80
2021/03/12 09:11:17;;;;;;;25.57;18.60;;;;;;;4.73;67.54;95207.34;6218620;23;20401;-81
2021/03/12 09:13:45;;;;;;;30.33;19.87;;;;;;;5.12;67.80;95192.94;6218297;23;20419;-81
2021/03/12 09:22:57;;;;;;;32.07;19.10;;;;;;;5.89;64.75;95208.25;6219116;23;20457;-86
2021/03/12 09:25:29;;;;;;;31.97;20.10;;;;;;;5.87;64.60;95204.91;6219320;23;20414;-84
2021/03/12 09:28:14;;;;;;;35.90;18.93;;;;;;;6.15;66.03;95188.44;6217394;23;20394;-84
2021/03/12 09:30:42;;;;;;;34.70;21.93;;;;;;;6.32;68.26;95187.38;6219083;23;20994;-81
2021/03/12 09:33:10;;;;;;;34.43;21.60;;;;;;;6.36;65.91;95163.66;6218375;23;20472;-86
2021/03/12 09:35:42;;;;;;;33.40;20.83;;;;;;;6.56;66.09;95172.75;6217469;23;20401;-82
2021/03/12 09:38:09;;;;;;;30.10;21.17;;;;;;;6.39;67.02;95176.47;6218278;23;20421;-84
2021/03/12 09:40:39;;;;;;;34.83;20.13;;;;;;;6.70;66.46;95166.69;6216715;23;20851;-83
2021/03/12 09:43:07;;;;;;;40.83;25.10;;;;;;;7.01;65.54;95168.94;6216602;23;20442;-83
2021/03/12 09:45:36;;;;;;;32.03;20.20;;;;;;;7.21;63.99;95178.03;6218250;23;20405;-85
2021/03/12 09:48:04;;;;;;;25.77;16.40;;;;;;;6.98;62.08;95165.69;6217329;23;20712;-85
2021/03/12 09:50:35;;;;;;;23.33;16.73;;;;;;;6.68;61.53;95158.94;6214646;23;20910;-85
2021/03/12 09:53:05;;;;;;;33.70;19.50;;;;;;;6.65;62.44;95173.94;6218023;23;20493;-84
2021/03/12 09:55:34;;;;;;;37.07;20.60;;;;;;;6.78;64.25;95169.59;6189800;23;20402;-85
2021/03/12 09:58:05;;;;;;;31.17;19.90;;;;;;;6.78;62.46;95159.19;6217600;23;20430;-84
2021/03/12 10:00:31;;;;;;;45.20;26.60;;;;;;;6.81;63.62;95157.19;6216747;23;20399;-84
2021/03/12 10:02:59;;;;;;;33.57;20.77;;;;;;;6.81;63.53;95158.97;6216782;23;20472;-83
2021/03/12 10:05:26;;;;;;;25.83;18.80;;;;;;;6.86;63.48;95156.06;6216660;23;20407;-83
2021/03/12 10:07:53;;;;;;;34.93;21.27;;;;;;;7.00;64.53;95153.38;6217258;23;20398;-85
2021/03/12 10:10:24;;;;;;;29.87;20.57;;;;;;;6.79;64.11;95172.13;6217962;23;20414;-83
2021/03/12 10:12:53;;;;;;;35.57;22.37;;;;;;;6.95;64.43;95163.28;6219455;23;20390;-92
2021/03/12 10:15:23;;;;;;;27.73;15.77;;;;;;;6.72;63.70;95162.19;6220651;23;20851;-86
2021/03/12 10:17:50;;;;;;;28.00;19.20;;;;;;;6.40;66.38;95149.47;6220537;23;20394;-91
2021/03/12 10:20:28;;;;;;;27.30;18.43;;;;;;;5.68;67.71;95154.88;6221180;23;20417;-91
2021/03/12 10:22:58;;;;;;;26.50;18.33;;;;;;;5.90;69.80;95150.91;6222563;23;20437;-87
2021/03/12 10:25:27;;;;;;;27.10;18.57;;;;;;;6.10;69.21;95141.84;6222324;23;20386;-91
2021/03/12 10:27:56;;;;;;;28.37;18.93;;;;;;;6.14;68.41;95137.28;6220489;23;20413;-90
2021/03/12 10:30:30;;;;;;;28.63;17.63;;;;;;;6.43;70.44;95133.63;6220610;23;20420;-91
2021/03/12 10:32:58;;;;;;;30.90;18.20;;;;;;;6.50;68.66;95119.25;6220890;23;20422;-90
2021/03/12 10:35:31;;;;;;;28.27;17.10;;;;;;;6.55;68.47;95131.16;6220189;23;20505;-90
2021/03/12 10:38:00;;;;;;;29.60;16.90;;;;;;;6.58;67.30;95131.78;6220506;23;20414;-88
2021/03/12 10:40:28;;;;;;;25.60;15.53;;;;;;;6.59;66.97;95135.22;6219835;23;20448;-90
2021/03/12 10:42:57;;;;;;;22.20;15.30;;;;;;;6.65;66.44;95140.91;6220317;23;20520;-88
2021/03/12 10:45:27;;;;;;;23.17;15.37;;;;;;;6.91;66.82;95141.78;6220243;23;20720;-91
2021/03/12 10:47:58;;;;;;;27.10;18.40;;;;;;;6.94;65.28;95138.13;6220645;23;20413;-91
2021/03/12 10:50:26;;;;;;;21.43;15.03;;;;;;;6.71;66.13;95137.88;6219810;23;20414;-90
2021/03/12 10:53:06;;;;;;;25.67;17.03;;;;;;;7.00;65.25;95146.41;6220750;23;20406;-88
2021/03/12 10:55:35;;;;;;;29.30;18.90;;;;;;;6.72;66.22;95139.56;6219216;23;20420;-88
2021/03/12 10:58:02;;;;;;;25.03;16.00;;;;;;;6.92;65.30;95140.00;6219341;23;20797;-89
2021/03/12 11:00:30;;;;;;;30.93;15.67;;;;;;;6.81;66.03;95123.28;6218724;23;20757;-86
2021/03/12 11:02:58;;;;;;;24.87;17.27;;;;;;;6.86;66.24;95117.75;6217519;23;20739;-87
2021/03/12 11:05:24;;;;;;;34.77;18.50;;;;;;;6.78;66.78;95097.41;6218024;23;20485;-83
2021/03/12 11:07:51;;;;;;;22.93;14.00;;;;;;;6.12;69.91;95095.69;6220857;23;20402;-91
2021/03/12 11:10:18;;;;;;;24.53;16.03;;;;;;;6.34;71.53;95102.09;6220893;23;20444;-91
2021/03/12 11:12:46;;;;;;;30.57;15.70;;;;;;;6.72;70.30;95112.66;6221104;23;20408;-92
2021/03/12 11:15:15;;;;;;;24.17;16.57;;;;;;;6.89;68.36;95094.09;6220349;23;20405;-90
2021/03/12 11:17:45;;;;;;;25.93;17.43;;;;;;;6.74;67.84;95080.31;6221204;23;20406;-87
2021/03/12 11:20:14;;;;;;;26.93;19.33;;;;;;;6.92;67.55;95091.25;6220068;23;20416;-89
2021/03/12 11:22:40;;;;;;;22.87;16.30;;;;;;;7.02;66.58;95094.13;6219360;23;20437;-88
2021/03/12 11:25:08;;;;;;;25.10;16.90;;;;;;;7.25;66.51;95079.50;6218653;23;20493;-88
2021/03/12 11:27:35;;;;;;;24.43;16.13;;;;;;;7.43;66.43;95088.66;6217689;23;20410;-94
2021/03/12 11:30:23;;;;;;;22.60;17.33;;;;;;;7.60;65.91;95090.09;6154390;23;20396;-86
2021/03/12 11:32:51;;;;;;;27.00;18.30;;;;;;;7.65;66.10;95090.63;6156278;23;20415;-93
2021/03/12 11:35:18;;;;;;;24.07;16.70;;;;;;;7.79;66.13;95090.47;6155720;23;20424;-92
2021/03/12 11:37:45;;;;;;;21.00;14.90;;;;;;;7.95;66.99;95072.78;6162046;23;20410;-93
2021/03/12 11:40:13;;;;;;;26.30;16.60;;;;;;;8.08;66.23;95073.53;6156805;23;20440;-92
2021/03/12 11:42:40;;;;;;;23.50;16.77;;;;;;;8.16;64.59;95077.41;6156557;23;20459;-93
2021/03/12 11:45:09;;;;;;;27.30;17.63;;;;;;;8.11;64.79;95064.69;6158293;23;20416;-95